Time;durP1;ratioP1;P1;durP2;ratioP2;P2;SDS_P1;SDS_P2;PMS_P1;PMS_P2;Temp;Humidity;BMP_temperature;BMP_pressure;BME280_temperature;BME280_humidity;BME280_pressure;Samples;Min_cycle;Max_cycle;Signal;HPM_P1;HPM_P2
2021/09/15 00:02:19;;;;;;;13.40;5.97;;;;;;;17.16;100.00;93797.78;5114907;28;20258;-80
2021/09/15 00:04:46;;;;;;;7.32;4.85;;;;;;;17.25;100.00;93790.25;5114910;28;20202;-80
2021/09/15 00:07:14;;;;;;;8.38;5.35;;;;;;;17.31;100.00;93800.66;5114823;28;20197;-81
2021/09/15 00:09:45;;;;;;;7.95;4.75;;;;;;;17.31;100.00;93794.59;5114684;28;20201;-81
2021/09/15 00:12:15;;;;;;;9.32;4.68;;;;;;;17.38;100.00;93796.00;5113975;28;20598;-80
2021/09/15 00:14:45;;;;;;;8.52;4.88;;;;;;;17.36;100.00;93786.72;5114681;28;20264;-80
2021/09/15 00:17:11;;;;;;;11.70;5.20;;;;;;;17.21;100.00;93787.31;5114600;28;20209;-79
2021/09/15 00:19:43;;;;;;;9.07;5.18;;;;;;;17.19;100.00;93784.13;5114427;28;20236;-81
2021/09/15 00:22:14;;;;;;;10.90;5.05;;;;;;;17.21;100.00;93795.22;5114522;28;20223;-79
2021/09/15 00:24:47;;;;;;;7.95;4.60;;;;;;;17.19;100.00;93792.03;5114309;27;20552;-80
2021/09/15 00:27:15;;;;;;;8.07;5.13;;;;;;;17.15;100.00;93791.72;5111954;28;20237;-80
2021/09/15 00:29:41;;;;;;;13.23;4.88;;;;;;;17.17;100.00;93789.63;5114039;28;20208;-79
2021/09/15 00:32:10;;;;;;;6.60;4.50;;;;;;;17.10;100.00;93781.09;5098538;28;20205;-79
2021/09/15 00:34:36;;;;;;;6.40;4.50;;;;;;;17.14;100.00;93784.03;5093742;28;20314;-79
2021/09/15 00:37:05;;;;;;;9.00;4.40;;;;;;;17.15;100.00;93781.16;5093767;28;20202;-81
2021/09/15 00:39:32;;;;;;;10.30;4.60;;;;;;;17.27;100.00;93786.34;5093706;28;20235;-80
2021/09/15 00:42:08;;;;;;;9.55;4.03;;;;;;;17.24;100.00;93778.13;5093618;28;20202;-79
2021/09/15 00:44:34;;;;;;;7.75;4.63;;;;;;;17.17;100.00;93783.56;5093585;28;20198;-79
2021/09/15 00:47:01;;;;;;;9.07;4.13;;;;;;;17.11;100.00;93773.97;5093671;28;20194;-80
2021/09/15 00:49:27;;;;;;;9.07;4.32;;;;;;;17.12;100.00;93771.09;5093597;28;20683;-79
2021/09/15 00:51:54;;;;;;;8.25;4.32;;;;;;;17.13;100.00;93766.59;5093374;28;20636;-79
2021/09/15 00:54:21;;;;;;;8.77;4.47;;;;;;;17.12;100.00;93767.63;5092532;28;20649;-79
2021/09/15 00:56:47;;;;;;;6.68;4.20;;;;;;;17.15;100.00;93757.44;5093426;28;20224;-80
2021/09/15 00:59:15;;;;;;;5.47;4.10;;;;;;;17.20;100.00;93746.13;5093488;28;20676;-80
2021/09/15 01:01:46;;;;;;;6.25;4.38;;;;;;;17.22;100.00;93738.78;5093497;28;20201;-79
2021/09/15 01:04:19;;;;;;;9.65;4.03;;;;;;;17.22;100.00;93733.50;5104991;28;20205;-80
2021/09/15 01:06:48;;;;;;;8.45;3.92;;;;;;;17.33;100.00;93735.22;5113677;28;20296;-79
2021/09/15 01:09:15;;;;;;;7.28;4.18;;;;;;;17.43;100.00;93733.78;5113791;28;20201;-79
2021/09/15 01:11:42;;;;;;;7.35;4.05;;;;;;;17.30;100.00;93730.47;5113694;28;20201;-78
2021/09/15 01:14:10;;;;;;;6.30;3.95;;;;;;;17.30;100.00;93727.81;5112995;28;20209;-79
2021/09/15 01:17:09;;;;;;;7.53;4.20;;;;;;;17.26;100.00;93729.34;5113431;28;20259;-79
2021/09/15 01:19:36;;;;;;;9.45;4.40;;;;;;;17.14;100.00;93721.53;5093303;28;20288;-80
2021/09/15 01:22:04;;;;;;;7.63;4.28;;;;;;;17.11;100.00;93722.00;5093281;28;20206;-80
2021/09/15 01:24:34;;;;;;;6.70;3.97;;;;;;;17.06;100.00;93723.78;5093154;28;20209;-80
2021/09/15 01:27:02;;;;;;;8.35;4.15;;;;;;;16.99;100.00;93718.66;5092845;28;20648;-80
2021/09/15 01:29:34;;;;;;;12.45;4.53;;;;;;;16.93;100.00;93715.13;5093257;28;20303;-79
2021/09/15 01:32:06;;;;;;;8.98;4.47;;;;;;;16.87;100.00;93717.94;5093169;28;20194;-79
2021/09/15 01:34:35;;;;;;;13.50;4.68;;;;;;;16.85;100.00;93717.38;5093091;28;20201;-79
2021/09/15 01:37:05;;;;;;;12.55;4.20;;;;;;;16.83;100.00;93714.97;5092914;28;20676;-80
2021/09/15 01:39:32;;;;;;;10.30;4.20;;;;;;;16.83;100.00;93709.69;5093013;28;20225;-79
2021/09/15 01:41:59;;;;;;;8.20;4.10;;;;;;;16.81;100.00;93711.78;5092779;28;20224;-79
2021/09/15 01:44:33;;;;;;;10.73;4.22;;;;;;;16.94;100.00;93711.47;5093077;28;20289;-79
2021/09/15 01:47:01;;;;;;;7.65;4.25;;;;;;;17.06;100.00;93702.66;5092963;28;20194;-79
2021/09/15 01:49:36;;;;;;;6.60;3.75;;;;;;;17.00;100.00;93705.25;5092700;28;20656;-78
2021/09/15 01:52:15;;;;;;;7.80;4.40;;;;;;;17.02;100.00;93703.16;5092814;28;20219;-78
2021/09/15 01:54:42;;;;;;;11.90;4.53;;;;;;;16.95;100.00;93705.16;5095041;28;20202;-79
2021/09/15 01:57:08;;;;;;;12.32;4.40;;;;;;;16.92;100.00;93715.38;5097023;28;20615;-79
2021/09/15 01:59:38;;;;;;;11.70;4.60;;;;;;;16.92;100.00;93712.75;5096995;28;20202;-79
2021/09/15 02:02:05;;;;;;;6.90;4.25;;;;;;;16.96;100.00;93709.38;5096771;28;20243;-79
2021/09/15 02:04:33;;;;;;;10.07;4.18;;;;;;;17.11;100.00;93713.28;5096723;28;20198;-79
2021/09/15 02:07:07;;;;;;;6.10;4.10;;;;;;;17.15;100.00;93714.41;5096899;28;20275;-79
2021/09/15 02:09:37;;;;;;;5.72;4.03;;;;;;;17.11;100.00;93708.81;5096826;28;20198;-79
2021/09/15 02:12:04;;;;;;;6.82;4.28;;;;;;;17.10;100.00;93709.88;5096770;28;20236;-79
2021/09/15 02:14:31;;;;;;;7.65;4.32;;;;;;;17.12;100.00;93707.78;5096527;28;20203;-79
2021/09/15 02:17:00;;;;;;;9.30;4.20;;;;;;;17.20;100.00;93703.91;5107459;28;20225;-79
2021/09/15 02:19:33;;;;;;;8.25;4.35;;;;;;;17.17;100.00;93701.78;5096370;28;20267;-79
2021/09/15 02:22:03;;;;;;;9.88;4.10;;;;;;;17.08;100.00;93705.84;5096513;28;20198;-79
2021/09/15 02:24:29;;;;;;;7.22;4.05;;;;;;;16.96;100.00;93698.84;5096422;28;20541;-79
2021/09/15 02:27:00;;;;;;;7.15;3.92;;;;;;;16.92;100.00;93697.72;5095923;28;20664;-79
2021/09/15 02:29:27;;;;;;;8.95;4.68;;;;;;;16.81;100.00;93693.31;5096239;28;20201;-79
2021/09/15 02:31:55;;;;;;;11.10;4.47;;;;;;;16.79;100.00;93690.13;5095965;28;20675;-80
2021/09/15 02:34:24;;;;;;;8.32;4.55;;;;;;;16.78;100.00;93686.66;5096321;28;20541;-79
2021/09/15 02:36:55;;;;;;;6.68;4.05;;;;;;;16.80;100.00;93684.59;5095963;28;20483;-79
2021/09/15 02:39:24;;;;;;;9.65;4.53;;;;;;;16.70;100.00;93688.91;5096139;28;20302;-79
2021/09/15 02:41:51;;;;;;;8.02;4.15;;;;;;;16.69;100.00;93685.50;5096052;28;20198;-79
2021/09/15 02:44:18;;;;;;;9.40;4.22;;;;;;;16.63;100.00;93673.25;5095944;28;20208;-79
2021/09/15 02:46:45;;;;;;;14.68;5.30;;;;;;;16.51;100.00;93675.97;5096165;28;20202;-79
2021/09/15 02:49:11;;;;;;;10.65;5.20;;;;;;;16.46;100.00;93673.25;5095457;28;20444;-79
2021/09/15 02:51:40;;;;;;;9.20;3.90;;;;;;;16.48;100.00;93671.19;5095754;28;20572;-79
2021/09/15 02:54:07;;;;;;;7.85;4.18;;;;;;;16.47;100.00;93680.16;5095872;28;20198;-79
2021/09/15 02:56:33;;;;;;;8.60;4.38;;;;;;;16.36;100.00;93684.44;5095588;28;20717;-79
2021/09/15 02:59:00;;;;;;;9.30;4.28;;;;;;;16.30;100.00;93687.22;5095571;28;20198;-79
2021/09/15 03:01:27;;;;;;;12.15;4.90;;;;;;;16.23;100.00;93688.16;5095842;28;20206;-78
2021/09/15 03:03:54;;;;;;;10.02;4.85;;;;;;;16.16;100.00;93690.16;5095714;28;20204;-79
2021/09/15 03:06:20;;;;;;;10.98;4.90;;;;;;;16.13;100.00;93690.63;5094862;28;20202;-79
2021/09/15 03:08:47;;;;;;;12.15;4.63;;;;;;;16.11;100.00;93676.91;5095347;28;20201;-79
2021/09/15 03:11:13;;;;;;;11.13;4.97;;;;;;;16.12;100.00;93672.41;5095443;28;20568;-79
2021/09/15 03:13:40;;;;;;;7.90;4.47;;;;;;;16.20;100.00;93679.94;5095305;28;20209;-79
2021/09/15 03:16:06;;;;;;;12.18;4.68;;;;;;;16.38;100.00;93679.72;5095444;28;20240;-79
2021/09/15 03:18:34;;;;;;;8.55;4.18;;;;;;;16.65;100.00;93676.44;5108384;28;20193;-80
2021/09/15 03:21:01;;;;;;;9.93;4.15;;;;;;;16.57;100.00;93675.03;5115773;28;20208;-79
2021/09/15 03:23:27;;;;;;;11.63;4.70;;;;;;;16.57;100.00;93669.75;5115756;28;20206;-80
2021/09/15 03:25:54;;;;;;;8.32;4.07;;;;;;;16.70;100.00;93673.09;5115224;27;20229;-80
2021/09/15 03:28:20;;;;;;;14.13;4.65;;;;;;;16.78;100.00;93670.84;5115760;28;20208;-78
2021/09/15 03:30:47;;;;;;;11.73;4.88;;;;;;;16.46;100.00;93662.72;5115771;28;20204;-80
2021/09/15 03:33:13;;;;;;;10.25;4.18;;;;;;;16.27;100.00;93670.06;5115358;28;20193;-80
2021/09/15 03:35:41;;;;;;;12.65;5.15;;;;;;;16.16;100.00;93669.09;5115303;28;20227;-79
2021/09/15 03:38:09;;;;;;;10.18;5.18;;;;;;;16.05;100.00;93677.84;5115357;27;20201;-80
2021/09/15 03:40:36;;;;;;;8.20;4.47;;;;;;;15.99;100.00;93669.06;5115280;28;20646;-79
2021/09/15 03:43:02;;;;;;;15.45;5.32;;;;;;;16.00;100.00;93669.84;5115465;28;20198;-80
2021/09/15 03:45:29;;;;;;;7.40;5.00;;;;;;;15.97;100.00;93663.25;5115169;28;20212;-80
2021/09/15 03:47:55;;;;;;;9.90;4.57;;;;;;;16.01;100.00;93663.56;5115354;28;20210;-80
2021/09/15 03:50:22;;;;;;;13.30;5.25;;;;;;;16.14;100.00;93659.81;5115212;28;20532;-79
2021/09/15 03:52:50;;;;;;;10.35;4.82;;;;;;;16.12;100.00;93659.25;5115067;28;20201;-80
2021/09/15 03:55:16;;;;;;;9.75;5.40;;;;;;;16.06;100.00;93663.66;5114885;28;20205;-80
2021/09/15 03:57:43;;;;;;;17.85;5.97;;;;;;;16.06;100.00;93663.66;5115161;28;20201;-80
2021/09/15 04:00:10;;;;;;;7.88;4.72;;;;;;;16.05;100.00;93677.84;5115165;28;20193;-80
2021/09/15 04:02:37;;;;;;;11.50;5.28;;;;;;;15.95;100.00;93672.41;5114807;28;20287;-80
2021/09/15 04:05:04;;;;;;;7.95;4.95;;;;;;;15.87;100.00;93679.66;5115006;28;20219;-80
2021/09/15 04:07:31;;;;;;;10.25;5.07;;;;;;;15.83;100.00;93678.50;5114650;28;20674;-81
2021/09/15 04:09:59;;;;;;;12.50;5.22;;;;;;;15.80;100.00;93678.97;5114771;27;20197;-81
2021/09/15 04:12:25;;;;;;;11.68;6.25;;;;;;;15.81;100.00;93683.22;5114680;27;20197;-80
2021/09/15 04:14:52;;;;;;;16.05;6.03;;;;;;;15.86;100.00;93670.13;5114778;28;20210;-79
2021/09/15 04:17:18;;;;;;;16.00;6.40;;;;;;;15.97;100.00;93683.47;5113639;28;20466;-80
2021/09/15 04:19:45;;;;;;;14.52;6.47;;;;;;;15.98;100.00;93688.53;5113969;28;20193;-80
2021/09/15 04:22:17;;;;;;;11.05;6.00;;;;;;;15.94;100.00;93691.84;5114380;28;20203;-80
2021/09/15 04:33:06;;;;;;;12.07;6.13;;;;;;;15.82;100.00;93703.25;5114372;28;20200;-80
2021/09/15 04:35:32;;;;;;;11.73;5.90;;;;;;;15.78;100.00;93707.38;5114113;28;20206;-80
2021/09/15 04:37:59;;;;;;;13.57;5.88;;;;;;;15.78;100.00;93715.25;5114250;28;20201;-81
2021/09/15 04:40:25;;;;;;;11.70;6.13;;;;;;;15.76;100.00;93722.59;5114273;28;20208;-81
2021/09/15 04:42:53;;;;;;;12.73;6.70;;;;;;;15.75;100.00;93720.16;5114252;28;20204;-80
2021/09/15 04:45:19;;;;;;;11.75;6.38;;;;;;;15.74;100.00;93727.28;5114064;28;20197;-80
2021/09/15 04:47:46;;;;;;;8.25;6.00;;;;;;;15.75;100.00;93728.84;5114009;28;20698;-80
2021/09/15 04:50:12;;;;;;;13.43;7.03;;;;;;;15.77;100.00;93729.47;5113923;28;20292;-81
2021/09/15 04:52:39;;;;;;;11.93;6.50;;;;;;;15.80;100.00;93728.19;5114016;28;20208;-80
2021/09/15 04:55:08;;;;;;;11.73;6.07;;;;;;;15.81;100.00;93733.22;5113932;28;20626;-80
2021/09/15 04:57:34;;;;;;;15.93;6.47;;;;;;;15.86;100.00;93725.44;5113689;28;20221;-80
2021/09/15 05:00:03;;;;;;;11.43;6.25;;;;;;;15.87;100.00;93729.69;5113675;28;20204;-80
2021/09/15 05:02:29;;;;;;;13.63;6.50;;;;;;;15.88;100.00;93720.72;5113815;28;20208;-80
2021/09/15 05:04:56;;;;;;;12.93;6.03;;;;;;;15.91;100.00;93725.53;5113846;28;20563;-80
2021/09/15 05:07:22;;;;;;;12.98;6.55;;;;;;;15.96;100.00;93726.66;5113815;28;20201;-81
2021/09/15 05:09:49;;;;;;;13.57;6.32;;;;;;;15.98;100.00;93738.56;5113726;28;20220;-81
2021/09/15 05:12:15;;;;;;;20.67;6.80;;;;;;;15.97;100.00;93734.34;5113526;28;20193;-80
2021/09/15 05:14:42;;;;;;;14.95;6.78;;;;;;;15.96;100.00;93729.31;5113769;28;20202;-80
2021/09/15 05:17:10;;;;;;;17.77;6.18;;;;;;;15.95;100.00;93731.13;5113592;28;20582;-81
2021/09/15 05:19:36;;;;;;;17.52;7.25;;;;;;;15.93;100.00;93724.50;5113740;28;20197;-79
2021/09/15 05:22:03;;;;;;;16.13;6.53;;;;;;;15.96;100.00;93721.41;5113642;28;20258;-79
2021/09/15 05:24:30;;;;;;;17.45;7.07;;;;;;;15.96;100.00;93718.78;5113559;28;20275;-80
2021/09/15 05:26:56;;;;;;;18.02;7.68;;;;;;;15.99;100.00;93723.56;5113262;28;20233;-79
2021/09/15 05:29:22;;;;;;;12.07;6.57;;;;;;;15.96;100.00;93711.66;5113017;28;20204;-80
2021/09/15 05:31:52;;;;;;;15.27;6.65;;;;;;;15.95;100.00;93709.25;5113510;28;20193;-81
2021/09/15 05:34:20;;;;;;;21.08;8.15;;;;;;;15.98;100.00;93706.94;5113442;28;20200;-80
2021/09/15 05:36:46;;;;;;;11.82;7.72;;;;;;;15.99;100.00;93700.66;5113316;28;20237;-81
2021/09/15 05:39:13;;;;;;;22.17;8.07;;;;;;;16.02;100.00;93699.38;5113302;28;20669;-81
2021/09/15 05:41:39;;;;;;;16.75;7.57;;;;;;;15.99;100.00;93691.97;5113285;28;20201;-80
2021/09/15 05:44:06;;;;;;;13.60;7.10;;;;;;;15.95;100.00;93688.19;5113497;28;20201;-80
2021/09/15 05:46:32;;;;;;;17.92;7.55;;;;;;;15.91;100.00;93683.41;5113395;28;20197;-81
2021/09/15 05:48:59;;;;;;;18.52;9.48;;;;;;;15.93;100.00;93680.53;5112309;28;20434;-80
2021/09/15 05:51:27;;;;;;;25.58;8.50;;;;;;;15.95;100.00;93680.28;5113202;28;20304;-81
2021/09/15 05:53:54;;;;;;;13.95;8.57;;;;;;;15.93;100.00;93682.38;5113071;28;20540;-80
2021/09/15 05:56:20;;;;;;;15.40;7.45;;;;;;;15.95;100.00;93686.34;5113063;28;20874;-80
2021/09/15 05:58:47;;;;;;;11.98;7.38;;;;;;;15.96;100.00;93682.69;5113442;28;20295;-80
2021/09/15 06:01:14;;;;;;;16.58;7.32;;;;;;;15.93;100.00;93683.16;5113323;28;20197;-80
2021/09/15 06:03:40;;;;;;;18.55;7.57;;;;;;;15.93;100.00;93683.16;5113189;28;20288;-80
2021/09/15 06:06:06;;;;;;;13.65;7.57;;;;;;;15.97;100.00;93691.38;5113037;28;20720;-80
2021/09/15 06:08:34;;;;;;;12.27;7.07;;;;;;;15.95;100.00;93688.19;5112979;28;20230;-81
2021/09/15 06:11:01;;;;;;;15.65;7.40;;;;;;;15.95;100.00;93688.19;5113230;28;20201;-80
2021/09/15 06:13:28;;;;;;;14.88;6.97;;;;;;;15.97;100.00;93680.84;5113139;28;20201;-80
2021/09/15 06:15:54;;;;;;;12.50;7.30;;;;;;;15.99;100.00;93678.81;5113009;28;20250;-80
2021/09/15 06:18:21;;;;;;;14.55;6.85;;;;;;;16.00;100.00;93677.75;5112955;28;20197;-79
2021/09/15 06:20:47;;;;;;;17.58;7.30;;;;;;;16.03;100.00;93674.66;5112721;28;20201;-79
2021/09/15 06:23:14;;;;;;;14.32;7.13;;;;;;;16.05;100.00;93680.47;5112517;28;20280;-79
2021/09/15 06:25:42;;;;;;;12.52;7.18;;;;;;;16.05;100.00;93677.84;5112723;28;20221;-79
2021/09/15 06:28:10;;;;;;;13.55;8.05;;;;;;;16.04;100.00;93689.44;5112866;28;20201;-80
2021/09/15 06:30:36;;;;;;;12.35;7.18;;;;;;;16.04;100.00;93703.38;5112843;28;20194;-80
2021/09/15 06:33:03;;;;;;;19.45;9.10;;;;;;;16.01;100.00;93700.44;5112278;28;20917;-80
2021/09/15 06:35:29;;;;;;;13.52;7.70;;;;;;;16.06;100.00;93701.31;5112687;28;20204;-79
2021/09/15 06:37:56;;;;;;;17.92;7.88;;;;;;;16.09;100.00;93684.25;5112757;28;20364;-80
2021/09/15 06:40:23;;;;;;;18.35;7.88;;;;;;;16.14;100.00;93681.69;5112888;28;20197;-80
2021/09/15 06:42:51;;;;;;;21.55;6.78;;;;;;;16.15;100.00;93685.91;5116165;28;20207;-80
2021/09/15 06:45:17;;;;;;;11.55;6.78;;;;;;;16.17;100.00;93689.13;5116304;28;20714;-80
2021/09/15 06:47:45;;;;;;;15.45;6.30;;;;;;;16.17;100.00;93694.41;5116261;28;20204;-79
2021/09/15 06:50:14;;;;;;;13.38;6.68;;;;;;;16.21;100.00;93697.34;5116027;28;20205;-80
2021/09/15 06:52:41;;;;;;;11.77;5.60;;;;;;;16.30;100.00;93710.94;5116295;28;20208;-80
2021/09/15 06:55:09;;;;;;;13.57;6.97;;;;;;;16.38;100.00;93713.97;5116248;28;20213;-80
2021/09/15 06:57:35;;;;;;;16.02;6.65;;;;;;;16.51;100.00;93722.63;5115772;28;20312;-79
2021/09/15 07:00:04;;;;;;;13.10;6.05;;;;;;;16.60;100.00;93734.38;5116119;28;20197;-79
2021/09/15 07:02:31;;;;;;;18.13;6.50;;;;;;;16.64;100.00;93733.66;5115887;28;20197;-79
2021/09/15 07:04:58;;;;;;;13.18;6.45;;;;;;;16.71;100.00;93736.13;5116226;28;20223;-80
2021/09/15 07:07:24;;;;;;;12.68;6.20;;;;;;;16.76;100.00;93736.22;5116155;28;20198;-79
2021/09/15 07:09:51;;;;;;;13.40;6.18;;;;;;;16.82;100.00;93729.19;5116101;28;20201;-79
2021/09/15 07:12:17;;;;;;;15.65;6.60;;;;;;;16.78;100.00;93744.69;5115791;28;20735;-79
2021/09/15 07:14:44;;;;;;;10.82;5.70;;;;;;;16.86;100.00;93730.34;5115863;28;20198;-80
2021/09/15 07:17:12;;;;;;;11.30;5.90;;;;;;;16.81;100.00;93733.66;5115546;28;20232;-79
2021/09/15 07:19:38;;;;;;;10.50;5.18;;;;;;;16.76;100.00;93730.94;5115986;28;20198;-80
2021/09/15 07:22:05;;;;;;;10.82;5.13;;;;;;;16.73;100.00;93735.91;5115868;28;20579;-80
2021/09/15 07:24:32;;;;;;;8.25;5.00;;;;;;;16.68;100.00;93738.44;5115607;28;20686;-80
2021/09/15 07:26:58;;;;;;;12.02;5.65;;;;;;;16.77;100.00;93748.38;5115673;28;20229;-80
2021/09/15 07:29:25;;;;;;;11.73;5.97;;;;;;;16.88;100.00;93733.53;5115549;28;20201;-80
2021/09/15 07:31:51;;;;;;;12.05;5.40;;;;;;;16.92;100.00;93718.00;5115246;28;20198;-80
2021/09/15 07:34:19;;;;;;;13.10;4.78;;;;;;;16.87;100.00;93704.75;5115639;28;20205;-80
2021/09/15 07:36:46;;;;;;;12.32;5.90;;;;;;;16.93;100.00;93699.31;5115355;27;20217;-79
2021/09/15 07:39:12;;;;;;;11.68;5.55;;;;;;;17.20;100.00;93704.72;5115427;28;20201;-79
2021/09/15 07:41:39;;;;;;;11.90;5.70;;;;;;;17.46;100.00;93686.56;5115249;28;20590;-80
2021/09/15 07:44:05;;;;;;;12.13;4.90;;;;;;;17.61;100.00;93678.03;5115189;28;20202;-79
2021/09/15 07:46:33;;;;;;;11.05;4.70;;;;;;;17.62;100.00;93674.38;5115124;28;20227;-78
2021/09/15 07:48:59;;;;;;;11.77;4.82;;;;;;;17.80;100.00;93690.91;5115277;28;20648;-79
2021/09/15 07:51:27;;;;;;;10.07;4.35;;;;;;;17.83;100.00;93701.78;5114872;28;20595;-78
2021/09/15 07:53:54;;;;;;;9.57;4.30;;;;;;;17.80;100.00;93697.00;5115164;28;20197;-79
2021/09/15 07:56:21;;;;;;;11.23;4.38;;;;;;;17.85;100.00;93693.63;5114912;28;20208;-79
2021/09/15 07:58:47;;;;;;;10.15;4.68;;;;;;;17.76;100.00;93699.34;5114817;28;20233;-79
2021/09/15 08:01:14;;;;;;;11.60;4.82;;;;;;;17.73;100.00;93706.97;5115084;27;20213;-79
2021/09/15 08:03:40;;;;;;;10.38;4.20;;;;;;;17.82;100.00;93710.78;5115078;28;20284;-79
2021/09/15 08:06:07;;;;;;;13.68;4.47;;;;;;;17.71;100.00;93725.69;5114840;28;20250;-78
2021/09/15 08:08:35;;;;;;;8.98;4.00;;;;;;;17.59;100.00;93748.00;5114919;28;20210;-78
2021/09/15 08:11:02;;;;;;;14.20;4.90;;;;;;;17.54;100.00;93770.63;5114876;27;20248;-78
2021/09/15 08:13:28;;;;;;;11.07;3.88;;;;;;;17.34;100.00;93794.91;5114616;28;20211;-78
2021/09/15 08:15:55;;;;;;;8.70;3.58;;;;;;;17.43;100.00;93792.63;5114053;28;20194;-79
2021/09/15 08:18:23;;;;;;;7.13;3.33;;;;;;;17.45;100.00;93779.19;5114341;28;20221;-78
2021/09/15 08:20:50;;;;;;;12.80;4.15;;;;;;;17.54;100.00;93767.97;5114750;28;20197;-78
2021/09/15 08:23:18;;;;;;;8.23;4.13;;;;;;;17.74;100.00;93771.94;5110124;28;20634;-77
2021/09/15 08:25:46;;;;;;;13.05;4.68;;;;;;;17.86;100.00;93779.75;5113422;28;20226;-78
2021/09/15 08:28:13;;;;;;;11.57;4.28;;;;;;;17.94;100.00;93774.84;5114035;28;20668;-79
2021/09/15 08:30:39;;;;;;;10.65;4.53;;;;;;;17.84;100.00;93772.06;5114352;28;20228;-77
2021/09/15 08:33:09;;;;;;;8.15;4.00;;;;;;;17.98;100.00;93782.28;5114412;28;20228;-78
2021/09/15 08:35:36;;;;;;;7.53;4.03;;;;;;;18.12;100.00;93773.75;5114330;28;20193;-79
2021/09/15 08:38:02;;;;;;;12.13;3.75;;;;;;;18.22;100.00;93778.34;5114098;28;20230;-79
2021/09/15 08:40:29;;;;;;;7.15;3.50;;;;;;;18.35;100.00;93771.06;5114108;28;20279;-79
2021/09/15 08:42:57;;;;;;;8.73;3.70;;;;;;;18.25;100.00;93774.41;5114354;28;20209;-79
2021/09/15 08:45:24;;;;;;;9.93;3.45;;;;;;;18.21;100.00;93771.47;5114168;28;20201;-79
2021/09/15 08:47:53;;;;;;;8.30;3.90;;;;;;;18.26;100.00;93782.09;5113935;28;20651;-79
2021/09/15 08:50:22;;;;;;;11.18;4.70;;;;;;;18.16;100.00;93778.53;5113682;28;20201;-80
2021/09/15 08:52:48;;;;;;;10.73;3.85;;;;;;;18.08;100.00;93783.19;5113226;28;20208;-78
2021/09/15 08:55:15;;;;;;;9.63;3.70;;;;;;;18.03;100.00;93785.78;5113815;28;20208;-77
2021/09/15 08:57:41;;;;;;;8.75;3.50;;;;;;;17.96;100.00;93792.31;5113706;28;20229;-77
2021/09/15 09:00:12;;;;;;;13.27;4.07;;;;;;;17.69;100.00;93801.72;5113965;28;20216;-78
2021/09/15 09:02:40;;;;;;;11.63;3.85;;;;;;;17.70;100.00;93798.03;5113864;28;20197;-79
2021/09/15 09:05:07;;;;;;;9.45;3.95;;;;;;;17.69;100.00;93800.94;5113320;28;20224;-79
2021/09/15 09:07:34;;;;;;;12.70;4.60;;;;;;;17.44;100.00;93814.56;5113616;28;20204;-79
2021/09/15 09:10:06;;;;;;;12.35;5.32;;;;;;;17.16;100.00;93826.81;5113961;28;20209;-77
2021/09/15 09:12:32;;;;;;;14.48;5.88;;;;;;;17.06;100.00;93818.75;5113923;28;20193;-77
2021/09/15 09:15:15;;;;;;;13.48;4.90;;;;;;;16.95;100.00;93815.94;5113632;28;20333;-77
2021/09/15 09:17:42;;;;;;;11.68;6.32;;;;;;;16.94;100.00;93808.25;5113454;28;20262;-77
2021/09/15 09:20:17;;;;;;;10.82;5.50;;;;;;;16.96;100.00;93820.16;5113515;28;20205;-76
2021/09/15 09:22:57;;;;;;;12.15;5.95;;;;;;;16.93;100.00;93811.94;5113689;28;20201;-76
2021/09/15 09:25:23;;;;;;;13.20;5.75;;;;;;;16.98;100.00;93823.34;5113328;28;20699;-76
2021/09/15 09:27:50;;;;;;;13.25;6.45;;;;;;;16.98;100.00;93818.06;5113454;28;20212;-77
2021/09/15 09:30:35;;;;;;;18.00;7.95;;;;;;;17.05;100.00;93822.41;5113454;28;20671;-77
2021/09/15 09:33:01;;;;;;;16.85;8.63;;;;;;;17.12;100.00;93815.13;5113566;28;20197;-76
2021/09/15 09:35:38;;;;;;;16.90;8.93;;;;;;;17.24;100.00;93807.16;5113606;28;20298;-76
2021/09/15 09:38:15;;;;;;;14.55;7.70;;;;;;;17.18;100.00;93811.53;5113385;28;20236;-76
2021/09/15 09:40:57;;;;;;;14.38;7.60;;;;;;;17.05;100.00;93817.91;5112891;28;20204;-77
2021/09/15 09:43:24;;;;;;;20.30;10.38;;;;;;;17.01;100.00;93807.06;5113250;28;20666;-75
2021/09/15 09:45:52;;;;;;;23.38;10.48;;;;;;;17.10;100.00;93809.28;5113360;28;20216;-76
2021/09/15 09:48:32;;;;;;;16.08;8.55;;;;;;;17.24;100.00;93810.56;5113368;28;20254;-75
2021/09/15 09:50:59;;;;;;;22.30;9.27;;;;;;;17.37;100.00;93814.75;5113215;28;20291;-76
2021/09/15 09:53:27;;;;;;;18.52;8.23;;;;;;;17.58;100.00;93810.53;5113172;28;20658;-77
2021/09/15 09:55:58;;;;;;;15.55;7.60;;;;;;;17.75;100.00;93805.22;5113367;28;20204;-76
2021/09/15 09:58:26;;;;;;;12.93;6.80;;;;;;;18.03;100.00;93796.34;5112678;28;20264;-76
2021/09/15 10:00:56;;;;;;;9.18;5.07;;;;;;;17.99;100.00;93800.53;5113065;28;20734;-76
2021/09/15 10:03:22;;;;;;;14.13;4.93;;;;;;;18.04;100.00;93800.59;5113071;28;20219;-76
2021/09/15 10:05:49;;;;;;;7.35;3.88;;;;;;;17.90;100.00;93792.25;5113162;28;20205;-78
2021/09/15 10:08:19;;;;;;;13.70;4.43;;;;;;;18.03;100.00;93798.19;5112957;28;20240;-77
2021/09/15 10:10:48;;;;;;;9.52;4.70;;;;;;;18.30;100.00;93800.88;5113338;28;20204;-77
2021/09/15 10:13:16;;;;;;;8.82;4.47;;;;;;;18.45;100.00;93798.44;5112681;28;20247;-77
2021/09/15 10:15:45;;;;;;;8.98;4.05;;;;;;;18.74;100.00;93795.53;5113381;28;20706;-77
2021/09/15 10:18:14;;;;;;;8.55;4.10;;;;;;;18.84;100.00;93789.56;5116855;28;20229;-77
2021/09/15 10:20:46;;;;;;;10.05;4.63;;;;;;;18.94;100.00;93789.66;5116836;28;20202;-77
2021/09/15 10:23:38;;;;;;;6.68;3.63;;;;;;;19.27;100.00;93792.25;5116499;28;20197;-77
2021/09/15 10:26:27;;;;;;;6.97;3.70;;;;;;;19.11;100.00;93786.88;5116593;28;20229;-76
2021/09/15 10:29:28;;;;;;;9.40;3.92;;;;;;;19.13;100.00;93798.00;5116660;28;20284;-76
2021/09/15 10:32:06;;;;;;;8.60;3.10;;;;;;;19.33;100.00;93793.91;5073764;28;20759;-77
2021/09/15 10:34:54;;;;;;;6.45;3.22;;;;;;;19.21;100.00;93797.53;5073779;28;20194;-76
2021/09/15 10:37:52;;;;;;;4.70;3.15;;;;;;;19.27;100.00;93797.56;5097704;28;20542;-78
2021/09/15 10:40:42;;;;;;;10.30;3.40;;;;;;;18.76;100.00;93796.06;5116766;27;20288;-76
2021/09/15 10:43:51;;;;;;;7.35;3.42;;;;;;;18.59;100.00;93798.03;5116533;28;20216;-77
2021/09/15 10:46:23;;;;;;;9.77;4.00;;;;;;;18.18;100.00;93789.66;5116629;28;20207;-77
2021/09/15 10:49:31;;;;;;;8.35;3.95;;;;;;;18.35;100.00;93784.28;5116444;28;20205;-77
2021/09/15 10:52:28;;;;;;;7.40;3.78;;;;;;;18.70;100.00;93778.53;5109792;28;20466;-77
2021/09/15 10:54:56;;;;;;;5.35;2.92;;;;;;;18.78;100.00;93778.09;5116418;28;20220;-77
2021/09/15 10:57:30;;;;;;;5.80;3.05;;;;;;;19.05;100.00;93787.88;5116229;28;20221;-77
2021/09/15 10:59:59;;;;;;;7.45;2.90;;;;;;;19.07;100.00;93787.63;5116162;28;20247;-77
2021/09/15 11:02:27;;;;;;;6.18;3.20;;;;;;;19.19;100.00;93778.47;5115794;28;20802;-77
2021/09/15 11:04:54;;;;;;;5.18;3.00;;;;;;;19.23;100.00;93776.91;5116156;28;20197;-79
2021/09/15 11:07:59;;;;;;;5.15;2.80;;;;;;;18.97;100.00;93773.28;5116101;28;20209;-76
2021/09/15 11:10:36;;;;;;;7.20;3.03;;;;;;;18.48;100.00;93762.75;5115853;28;20223;-76
2021/09/15 11:13:05;;;;;;;6.75;2.75;;;;;;;18.66;100.00;93766.88;5116040;28;20204;-76
2021/09/15 11:15:32;;;;;;;7.38;3.33;;;;;;;18.66;100.00;93756.31;5115734;28;20228;-77
2021/09/15 11:18:03;;;;;;;6.03;3.00;;;;;;;18.97;100.00;93746.03;5115569;28;20224;-77
2021/09/15 11:20:31;;;;;;;5.97;3.08;;;;;;;18.93;100.00;93736.97;5115810;28;20197;-76
2021/09/15 11:23:04;;;;;;;5.80;2.95;;;;;;;19.33;100.00;93733.78;5115703;28;20563;-78
2021/09/15 11:25:30;;;;;;;4.75;2.53;;;;;;;19.66;100.00;93726.56;5115474;28;20230;-77
2021/09/15 11:28:08;;;;;;;6.55;2.72;;;;;;;19.56;100.00;93722.00;5115155;27;20200;-76
2021/09/15 11:30:37;;;;;;;6.95;2.78;;;;;;;19.96;100.00;93720.63;5115616;28;20197;-77
2021/09/15 11:33:04;;;;;;;6.50;3.03;;;;;;;20.02;100.00;93729.41;5115339;28;20193;-76
2021/09/15 11:35:33;;;;;;;5.47;2.70;;;;;;;19.93;100.00;93734.41;5115491;27;20732;-77
2021/09/15 11:37:59;;;;;;;4.40;2.85;;;;;;;19.69;100.00;93725.25;5115549;28;20229;-77